Airfield :
LOGIN :

Register | Disclaimer

   EN    FR    IT 

 










Legend :    VFR   Marginal VFR   IFR   Intensive IFR   Very Intensive IFR
Visi :
Ceiling :
>= 8 km
>= 3000ft
5 to 8 km
1000 to 3000 ft
1500m to 5 km
500 to 1000 ft
800 to 1500m
200 to 500 ft
< 800m
< 200 ft
Symbols :   Thunderstorms  Fog  Heavy snow  Heavy precipitations  Wind > 20 kt
SIGMETs :     Misc.  Thunderstorms  Icing  Turbulence  Mountain Waves  Volcanic Ashes







- Airport Elevation : 479 ft
- IATA code : DOL
- Download approach charts


LFRG - Deauville

CURRENT METAR :
  • 191200Z AUTO 21014KT 9999 BKN018 BKN028 BKN050 18/14 Q1006 TEMPO RA BKN012 BECMG 18015G25KT

EXPIRED METARs :
  • 191130Z AUTO 21013KT 9999 BKN016 BKN030 17/14 Q1006 TEMPO RA BKN012 BECMG 18015G25KT
  • 191100Z AUTO 22014KT 9999 BKN016 OVC023 17/14 Q1006 TEMPO 19015G25KT 4000 RA BKN012
  • 191030Z AUTO 21015KT 9999 OVC017 18/14 Q1006 TEMPO 19015G25KT 4000 RA BKN012
  • 191000Z AUTO 19011KT 9999 FEW015 18/14 Q1006 TEMPO 19015G25KT 4000 RA BKN012
  • 190930Z AUTO 19014KT CAVOK 17/14 Q1006 TEMPO 19015G25KT 4000 RA BKN012

TAF TAF LFRG
Valid from the 19 at 12:00 until the 19 at 21:00 UTC


191100Z 1912/1921 20012KT 9999 BKN040
TEMPO 1912/1914 5000 RA BKN012
BECMG 1912/1915 18015G25KT
BECMG 1918/1921 18020G33KT 5000 RA BKN030
ATIS : +33 2 31 65 65 36
No reported NOTAMs for that airfield.



MET'MAP, your aeronautical weather chart ! - Copyright ORBIFLY December 2007 - Disclaimer

ORBIFLY MET'MAP TEAM :

Programming & Development : Alexandra Zaïnal
Concept & Development : Baudouin d'Aumeries
Co-Development & Prog : Marc-Olivier Méhu
Technical & hardware support : Manuel Goepfert

Contact : metmap@orbifly.com




SOURCES & CREDITS :

   NOAA